createdAt,value
2023-01-17T00:00:57.024Z,3.87
2023-01-17T00:04:00.975Z,3.89
2023-01-17T00:07:05.047Z,3.91
2023-01-17T00:09:53.311Z,3.93
2023-01-17T00:12:39.370Z,3.90
2023-01-17T00:15:25.957Z,3.92
2023-01-17T00:18:11.672Z,3.90
2023-01-17T00:21:15.797Z,3.90
2023-01-17T00:24:19.510Z,3.92
2023-01-17T00:27:13.846Z,3.93
2023-01-17T00:29:59.506Z,3.94
2023-01-17T00:32:44.709Z,3.95
2023-01-17T00:35:32.116Z,3.95
2023-01-17T00:38:20.223Z,3.95
2023-01-17T00:41:13.747Z,3.98
2023-01-17T00:44:18.965Z,4.00
2023-01-17T00:47:24.373Z,4.00
2023-01-17T00:50:29.160Z,4.02
2023-01-17T00:53:32.873Z,4.00
2023-01-17T00:56:36.665Z,4.01
2023-01-17T00:59:40.643Z,4.02
2023-01-17T01:02:45.739Z,3.99
2023-01-17T01:05:49.486Z,4.00
2023-01-17T01:08:53.486Z,3.96
2023-01-17T01:11:57.251Z,3.93
2023-01-17T01:15:01.236Z,3.90
2023-01-17T01:18:05.218Z,3.91
2023-01-17T01:21:09.055Z,3.91
2023-01-17T01:24:13.165Z,3.88
2023-01-17T01:27:17.996Z,3.91
2023-01-17T01:30:22.871Z,3.90
2023-01-17T01:33:19.068Z,3.89
2023-01-17T01:36:08.072Z,3.89
2023-01-17T01:38:54.631Z,3.89
2023-01-17T01:41:40.035Z,3.86
2023-01-17T01:44:49.779Z,3.79
2023-01-17T01:47:40.764Z,3.83
2023-01-17T01:50:28.031Z,3.82
2023-01-17T01:53:13.677Z,3.81
2023-01-17T01:55:59.507Z,3.80
2023-01-17T01:58:49.005Z,3.76
2023-01-17T02:01:34.631Z,3.80
2023-01-17T02:04:20.753Z,3.77
2023-01-17T02:07:14.680Z,3.78
2023-01-17T02:10:01.059Z,3.74
2023-01-17T02:12:47.199Z,3.73
2023-01-17T02:16:18.120Z,3.73
2023-01-17T02:19:15.842Z,3.70
2023-01-17T02:22:40.293Z,3.67
2023-01-17T02:25:50.744Z,3.67
2023-01-17T02:29:13.409Z,3.65
2023-01-17T02:32:07.404Z,3.61
2023-01-17T02:35:05.653Z,3.60
2023-01-17T02:38:00.547Z,3.58
2023-01-17T02:40:52.684Z,3.51
2023-01-17T02:43:39.592Z,3.50
2023-01-17T02:46:26.938Z,3.48
2023-01-17T02:49:12.645Z,3.47
2023-01-17T02:52:24.049Z,3.41
2023-01-17T02:55:36.884Z,3.37
2023-01-17T02:58:41.151Z,3.27
2023-01-17T03:01:46.373Z,3.18
2023-01-17T03:04:41.052Z,3.09
2023-01-17T03:07:28.818Z,3.01
2023-01-17T03:10:16.886Z,2.94
2023-01-17T03:13:03.254Z,2.85
2023-01-17T03:15:49.611Z,2.80
2023-01-17T03:18:35.238Z,2.78
2023-01-17T03:21:21.582Z,2.76
2023-01-17T03:24:07.457Z,2.76
2023-01-17T03:26:52.904Z,2.77
2023-01-17T03:29:38.462Z,2.77
2023-01-17T03:32:23.806Z,2.78
2023-01-17T03:35:09.491Z,2.81
2023-01-17T03:37:55.242Z,2.81
2023-01-17T03:40:41.660Z,2.84
2023-01-17T03:43:26.985Z,2.83
2023-01-17T03:46:27.477Z,2.85
2023-01-17T03:49:13.086Z,2.85
2023-01-17T03:51:59.099Z,2.81
2023-01-17T03:54:44.363Z,2.79
2023-01-17T03:57:29.772Z,2.75
2023-01-17T04:00:15.328Z,2.71
2023-01-17T04:03:00.947Z,2.68
2023-01-17T04:05:46.292Z,2.64
2023-01-17T04:08:31.777Z,2.62
2023-01-17T04:11:17.161Z,2.56
2023-01-17T04:14:02.419Z,2.52
2023-01-17T04:16:48.078Z,2.49
2023-01-17T04:19:36.435Z,2.48
2023-01-17T04:22:21.579Z,2.48
2023-01-17T04:25:07.394Z,2.50
2023-01-17T04:27:53.848Z,2.47
2023-01-17T04:30:39.552Z,2.47
2023-01-17T04:33:25.233Z,2.46
2023-01-17T04:36:11.011Z,2.47
2023-01-17T04:38:56.353Z,2.48
2023-01-17T04:41:41.704Z,2.51
2023-01-17T04:44:27.176Z,2.51
2023-01-17T04:47:12.707Z,2.53
2023-01-17T04:49:58.052Z,2.55
2023-01-17T04:52:43.607Z,2.56
2023-01-17T04:55:28.938Z,2.56
2023-01-17T04:58:14.326Z,2.56
2023-01-17T05:01:07.913Z,2.56
2023-01-17T05:03:53.710Z,2.59
2023-01-17T05:06:38.952Z,2.59
2023-01-17T05:09:24.474Z,2.61
2023-01-17T05:12:10.174Z,2.57
2023-01-17T05:14:55.390Z,2.56
2023-01-17T05:17:40.767Z,2.51
2023-01-17T05:20:26.720Z,2.49
2023-01-17T05:23:12.488Z,2.52
2023-01-17T05:25:57.814Z,2.49
2023-01-17T05:28:43.228Z,2.47
2023-01-17T05:31:28.630Z,2.41
2023-01-17T05:34:13.906Z,2.40
2023-01-17T05:36:59.492Z,2.39
2023-01-17T05:39:44.977Z,2.36
2023-01-17T05:42:30.370Z,2.34
2023-01-17T05:45:19.734Z,2.32
2023-01-17T05:48:06.722Z,2.32
2023-01-17T05:50:52.279Z,2.33
2023-01-17T05:53:37.941Z,2.35
2023-01-17T05:56:23.365Z,2.35
2023-01-17T05:59:08.820Z,2.34
2023-01-17T06:01:54.355Z,2.34
2023-01-17T06:04:39.751Z,2.34
2023-01-17T06:07:24.950Z,2.32
2023-01-17T06:10:10.946Z,2.32
2023-01-17T06:13:05.549Z,2.30
2023-01-17T06:15:51.390Z,2.30
2023-01-17T06:18:37.137Z,2.27
2023-01-17T06:21:22.373Z,2.24
2023-01-17T06:24:07.762Z,2.21
2023-01-17T06:26:53.190Z,2.17
2023-01-17T06:29:38.473Z,2.16
2023-01-17T06:32:23.937Z,2.14
2023-01-17T06:35:09.496Z,2.09
2023-01-17T06:37:58.157Z,2.06
2023-01-17T06:40:43.960Z,2.05
2023-01-17T06:43:32.641Z,2.01
2023-01-17T06:46:18.147Z,1.99
2023-01-17T06:49:04.042Z,1.98
2023-01-17T06:51:49.229Z,1.96
2023-01-17T06:54:34.653Z,1.90
2023-01-17T06:57:19.764Z,1.87
2023-01-17T07:00:07.222Z,1.85
2023-01-17T07:02:52.916Z,1.80
2023-01-17T07:05:38.292Z,1.75
2023-01-17T07:08:23.681Z,1.69
2023-01-17T07:11:10.604Z,1.63
2023-01-17T07:13:55.878Z,1.55
2023-01-17T07:16:46.012Z,1.47
2023-01-17T07:19:31.590Z,1.40
2023-01-17T07:22:16.956Z,1.37
2023-01-17T07:25:02.355Z,1.35
2023-01-17T07:27:47.959Z,1.30
2023-01-17T07:30:35.136Z,1.32
2023-01-17T07:33:20.756Z,1.28
2023-01-17T07:36:07.858Z,1.29
2023-01-17T07:38:53.444Z,1.26
2023-01-17T07:41:41.445Z,1.28
2023-01-17T07:44:26.830Z,1.31
2023-01-17T07:47:12.319Z,1.32
2023-01-17T07:49:57.572Z,1.35
2023-01-17T07:52:43.037Z,1.37
2023-01-17T07:55:28.591Z,1.35
2023-01-17T07:58:15.040Z,1.36
2023-01-17T08:01:22.698Z,1.34
2023-01-17T08:04:09.411Z,1.36
2023-01-17T08:06:55.223Z,1.38
2023-01-17T08:09:41.824Z,1.42
2023-01-17T08:12:29.452Z,1.45
2023-01-17T08:15:16.339Z,1.45
2023-01-17T08:18:01.669Z,1.49
2023-01-17T08:20:47.116Z,1.51
2023-01-17T08:23:32.530Z,1.53
2023-01-17T08:26:22.714Z,1.56
2023-01-17T08:29:09.297Z,1.59
2023-01-17T08:31:54.808Z,1.62
2023-01-17T08:34:40.696Z,1.68
2023-01-17T08:37:26.073Z,1.72
2023-01-17T08:40:12.116Z,1.80
2023-01-17T08:42:59.433Z,1.87
2023-01-17T08:45:47.112Z,1.91
2023-01-17T08:48:32.249Z,1.96
2023-01-17T08:51:17.589Z,2.02
2023-01-17T08:54:05.186Z,2.08
2023-01-17T08:56:52.846Z,2.13
2023-01-17T08:59:38.091Z,2.15
2023-01-17T09:03:53.138Z,2.12
2023-01-17T09:18:38.369Z,1.95
2023-01-17T09:21:24.586Z,1.97
2023-01-17T09:24:10.026Z,1.93
2023-01-17T09:26:55.861Z,1.98
2023-01-17T09:29:41.180Z,2.05
2023-01-17T09:32:26.483Z,2.09
2023-01-17T09:35:13.620Z,2.16
2023-01-17T09:37:59.126Z,2.19
2023-01-17T09:40:56.509Z,2.23
2023-01-17T09:44:09.443Z,2.29
2023-01-17T09:47:00.091Z,2.35
2023-01-17T09:49:47.129Z,2.39
2023-01-17T09:52:33.496Z,2.40
2023-01-17T09:55:20.229Z,2.40
2023-01-17T09:58:17.906Z,2.41
2023-01-17T10:01:19.176Z,2.43
2023-01-17T10:04:38.318Z,2.47
2023-01-17T10:07:49.297Z,2.54
2023-01-17T10:10:45.630Z,2.56
2023-01-17T10:14:03.959Z,2.58
2023-01-17T10:17:04.824Z,2.61
2023-01-17T10:20:34.175Z,2.66
2023-01-17T10:23:51.928Z,2.76
2023-01-17T10:26:38.356Z,2.83
2023-01-17T10:29:28.515Z,2.85
2023-01-17T10:32:14.887Z,2.90
2023-01-17T10:35:11.524Z,2.95
2023-01-17T10:38:03.718Z,2.96
2023-01-17T10:40:55.335Z,2.97
2023-01-17T10:43:56.001Z,2.97
2023-01-17T10:46:53.658Z,3.00
2023-01-17T10:49:45.118Z,3.04
2023-01-17T10:52:33.328Z,3.10
2023-01-17T10:55:27.249Z,3.13
2023-01-17T10:58:31.783Z,3.19
2023-01-17T11:01:20.263Z,3.26
2023-01-17T11:04:33.040Z,3.31
2023-01-17T11:07:26.672Z,3.32
2023-01-17T11:10:47.273Z,3.42
2023-01-17T11:13:36.202Z,3.51
2023-01-17T11:16:26.727Z,3.64
2023-01-17T11:19:36.143Z,3.75
2023-01-17T11:22:21.374Z,3.83
2023-01-17T11:25:07.235Z,3.93
2023-01-17T11:28:26.319Z,3.98
2023-01-17T11:31:16.616Z,3.96
2023-01-17T11:34:18.448Z,3.96
2023-01-17T11:37:19.277Z,3.96
2023-01-17T11:40:18.840Z,3.97
2023-01-17T11:43:18.757Z,3.98
2023-01-17T11:46:20.520Z,3.98
2023-01-17T11:49:21.933Z,4.04
2023-01-17T11:52:17.251Z,4.04
2023-01-17T11:55:02.720Z,4.07
2023-01-17T11:57:50.472Z,4.09
2023-01-17T12:00:46.913Z,4.09
2023-01-17T12:03:51.486Z,4.04
2023-01-17T12:06:57.671Z,4.03
2023-01-17T12:10:09.988Z,4.04
2023-01-17T12:13:41.307Z,4.01
2023-01-17T12:16:45.455Z,4.00
2023-01-17T12:19:34.346Z,4.00
2023-01-17T12:22:20.021Z,3.98
2023-01-17T12:25:23.669Z,3.95
2023-01-17T12:28:12.163Z,3.94
2023-01-17T12:31:18.191Z,3.93
2023-01-17T12:34:27.083Z,3.91
2023-01-17T12:37:30.537Z,3.90
2023-01-17T12:40:42.820Z,3.89
2023-01-17T12:43:37.383Z,3.88
2023-01-17T12:46:44.145Z,3.88
2023-01-17T12:49:40.696Z,3.87
2023-01-17T12:52:51.243Z,3.85
2023-01-17T12:56:16.676Z,3.84
2023-01-17T12:59:26.933Z,3.85
2023-01-17T13:02:34.533Z,3.82
2023-01-17T13:05:46.724Z,3.85
2023-01-17T13:08:43.835Z,3.85
2023-01-17T13:11:49.922Z,3.86
2023-01-17T13:14:35.922Z,3.87
2023-01-17T13:17:34.991Z,3.87
2023-01-17T13:20:33.122Z,3.90
2023-01-17T13:23:38.010Z,3.91
2023-01-17T13:26:33.793Z,3.94
2023-01-17T13:29:56.211Z,3.94
2023-01-17T13:33:01.618Z,3.96
2023-01-17T13:36:08.322Z,3.93
2023-01-17T13:39:12.711Z,3.95
2023-01-17T13:42:23.093Z,3.92
2023-01-17T13:45:17.627Z,3.94
2023-01-17T13:48:11.990Z,3.96
2023-01-17T13:51:17.015Z,4.00
2023-01-17T13:54:07.492Z,4.14
2023-01-17T13:57:27.323Z,4.28
2023-01-17T14:00:21.544Z,4.36
2023-01-17T14:03:11.644Z,4.42
2023-01-17T14:05:57.624Z,4.42
2023-01-17T14:08:45.487Z,4.34
2023-01-17T14:11:55.154Z,4.27
2023-01-17T14:14:41.019Z,4.23
2023-01-17T14:17:34.203Z,4.17
2023-01-17T14:20:25.862Z,4.10
2023-01-17T14:23:33.042Z,4.03
2023-01-17T14:26:28.945Z,3.98
2023-01-17T14:29:42.692Z,3.90
2023-01-17T14:32:32.611Z,3.85
2023-01-17T14:35:23.108Z,3.80
2023-01-17T14:38:31.617Z,3.75
2023-01-17T14:41:23.591Z,3.68
2023-01-17T14:44:14.874Z,3.63
2023-01-17T14:47:00.662Z,3.59
2023-01-17T14:49:46.066Z,3.52
2023-01-17T14:52:31.577Z,3.48
2023-01-17T14:55:20.305Z,3.43
2023-01-17T14:58:06.316Z,3.36
2023-01-17T15:00:56.483Z,3.31
2023-01-17T15:03:48.974Z,3.25
2023-01-17T15:06:40.738Z,3.17
2023-01-17T15:09:29.930Z,3.10
2023-01-17T15:12:15.387Z,3.00
2023-01-17T15:15:01.316Z,2.94
2023-01-17T15:17:46.962Z,2.87
2023-01-17T15:20:32.332Z,2.81
2023-01-17T15:23:21.308Z,2.72
2023-01-17T15:26:08.279Z,2.64
2023-01-17T15:29:03.953Z,2.55
2023-01-17T15:31:56.169Z,2.46
2023-01-17T15:34:46.875Z,2.36
2023-01-17T15:37:39.830Z,2.25
2023-01-17T15:40:26.667Z,2.13
2023-01-17T15:43:20.113Z,1.97
2023-01-17T15:46:05.754Z,1.86
2023-01-17T15:48:51.926Z,1.77
2023-01-17T15:51:39.032Z,1.69
2023-01-17T15:54:41.664Z,1.61
2023-01-17T15:57:28.561Z,1.55
2023-01-17T16:00:15.856Z,1.48
2023-01-17T16:03:01.389Z,1.41
2023-01-17T16:05:47.663Z,1.35
2023-01-17T16:08:38.613Z,1.29
2023-01-17T16:11:24.387Z,1.21
2023-01-17T16:14:10.303Z,1.14
2023-01-17T16:16:55.724Z,1.08
2023-01-17T16:19:41.787Z,1.00
2023-01-17T16:22:27.294Z,0.93
2023-01-17T16:25:15.120Z,0.88
2023-01-17T16:28:01.178Z,0.81
2023-01-17T16:30:48.488Z,0.74
2023-01-17T16:33:33.833Z,0.67
2023-01-17T16:36:21.238Z,0.59
2023-01-17T16:39:07.442Z,0.53
2023-01-17T16:42:00.988Z,0.45
2023-01-17T16:44:46.202Z,0.37
2023-01-17T16:47:31.550Z,0.31
2023-01-17T16:50:23.198Z,0.22
2023-01-17T16:53:08.705Z,0.15
2023-01-17T16:55:59.669Z,0.07
2023-01-17T16:58:45.452Z,0.01
2023-01-17T17:01:31.050Z,-0.08
2023-01-17T17:04:16.303Z,-0.15
2023-01-17T17:07:01.734Z,-0.23
2023-01-17T17:09:47.623Z,-0.26
2023-01-17T17:12:33.291Z,-0.33
2023-01-17T17:15:19.115Z,-0.39
2023-01-17T17:18:04.630Z,-0.47
2023-01-17T17:20:49.943Z,-0.52
2023-01-17T17:23:35.303Z,-0.55
2023-01-17T17:26:20.620Z,-0.58
2023-01-17T17:29:10.555Z,-0.61
2023-01-17T17:31:55.763Z,-0.63
2023-01-17T17:34:41.294Z,-0.66
2023-01-17T17:37:29.087Z,-0.69
2023-01-17T17:40:14.874Z,-0.72
2023-01-17T17:43:00.429Z,-0.75
2023-01-17T17:45:45.756Z,-0.77
2023-01-17T17:48:31.143Z,-0.80
2023-01-17T17:51:24.050Z,-0.85
2023-01-17T17:54:11.646Z,-0.90
2023-01-17T17:56:57.273Z,-0.95
2023-01-17T17:59:42.777Z,-1.02
2023-01-17T18:02:28.199Z,-1.06
2023-01-17T18:05:13.595Z,-1.12
2023-01-17T18:08:00.758Z,-1.18
2023-01-17T18:10:46.492Z,-1.21
2023-01-17T18:13:32.598Z,-1.25
2023-01-17T18:16:27.779Z,-1.26
2023-01-17T18:19:22.336Z,-1.31
2023-01-17T18:22:08.142Z,-1.36
2023-01-17T18:24:53.700Z,-1.40
2023-01-17T18:27:39.771Z,-1.45
2023-01-17T18:30:25.442Z,-1.51
2023-01-17T18:33:10.873Z,-1.58
2023-01-17T18:35:58.760Z,-1.65
2023-01-17T18:38:46.955Z,-1.68
2023-01-17T18:41:32.309Z,-1.72
2023-01-17T18:44:21.838Z,-1.76
2023-01-17T18:47:07.649Z,-1.80
2023-01-17T18:49:53.713Z,-1.82
2023-01-17T18:52:40.789Z,-1.84
2023-01-17T18:55:26.067Z,-1.84
2023-01-17T18:58:11.448Z,-1.86
2023-01-17T19:01:06.634Z,-1.89
2023-01-17T19:03:54.671Z,-1.90
2023-01-17T19:06:46.608Z,-1.94
2023-01-17T19:09:32.247Z,-1.94
2023-01-17T19:12:19.038Z,-1.94
2023-01-17T19:15:06.931Z,-1.94
2023-01-17T19:17:52.722Z,-1.92
2023-01-17T19:20:39.104Z,-1.90
2023-01-17T19:23:24.421Z,-1.90
2023-01-17T19:26:11.223Z,-1.87
2023-01-17T19:28:58.893Z,-1.83
2023-01-17T19:31:44.775Z,-1.77
2023-01-17T19:34:30.637Z,-1.71
2023-01-17T19:37:16.242Z,-1.65
2023-01-17T19:40:01.739Z,-1.60
2023-01-17T19:42:47.640Z,-1.53
2023-01-17T19:45:33.048Z,-1.47
2023-01-17T19:48:18.209Z,-1.40
2023-01-17T19:51:09.721Z,-1.33
2023-01-17T19:53:55.310Z,-1.26
2023-01-17T19:56:40.597Z,-1.19
2023-01-17T19:59:26.014Z,-1.11
2023-01-17T20:02:11.639Z,-0.99
2023-01-17T20:04:57.044Z,-0.81
2023-01-17T20:07:43.720Z,-0.70
2023-01-17T20:10:29.693Z,-0.62
2023-01-17T20:13:15.493Z,-0.57
2023-01-17T20:16:06.272Z,-0.54
2023-01-17T20:18:52.203Z,-0.55
2023-01-17T20:21:38.098Z,-0.54
2023-01-17T20:24:24.183Z,-0.53
2023-01-17T20:27:09.527Z,-0.50
2023-01-17T20:29:54.856Z,-0.46
2023-01-17T20:32:40.242Z,-0.39
2023-01-17T20:35:25.936Z,-0.36
2023-01-17T20:38:11.941Z,-0.31
2023-01-17T20:40:57.267Z,-0.28
2023-01-17T20:43:51.205Z,-0.25
2023-01-17T20:46:40.636Z,-0.24
2023-01-17T20:49:26.286Z,-0.22
2023-01-17T20:52:14.567Z,-0.22
2023-01-17T20:55:00.460Z,-0.20
2023-01-17T20:57:45.858Z,-0.21
2023-01-17T21:00:31.391Z,-0.21
2023-01-17T21:03:16.611Z,-0.23
2023-01-17T21:06:09.836Z,-0.23
2023-01-17T21:08:55.418Z,-0.25
2023-01-17T21:11:40.846Z,-0.25
2023-01-17T21:14:29.616Z,-0.25
2023-01-17T21:17:16.481Z,-0.23
2023-01-17T21:20:06.666Z,-0.23
2023-01-17T21:22:52.303Z,-0.21
2023-01-17T21:25:38.583Z,-0.22
2023-01-17T21:28:26.229Z,-0.20
2023-01-17T21:31:25.017Z,-0.20
2023-01-17T21:34:11.652Z,-0.20
2023-01-17T21:36:57.444Z,-0.19
2023-01-17T21:39:43.062Z,-0.18
2023-01-17T21:42:28.540Z,-0.18
2023-01-17T21:45:13.959Z,-0.19
2023-01-17T21:47:59.454Z,-0.18
2023-01-17T21:50:45.363Z,-0.18
2023-01-17T21:53:33.082Z,-0.18
2023-01-17T21:56:37.255Z,-0.18
2023-01-17T21:59:22.604Z,-0.17
2023-01-17T22:02:10.496Z,-0.17
2023-01-17T22:04:56.318Z,-0.16
2023-01-17T22:08:01.457Z,-0.16
2023-01-17T22:10:46.998Z,-0.15
2023-01-17T22:13:32.711Z,-0.17
2023-01-17T22:16:20.537Z,-0.16
2023-01-17T22:19:05.842Z,-0.17
2023-01-17T22:21:51.362Z,-0.18
2023-01-17T22:24:37.796Z,-0.18
2023-01-17T22:27:23.090Z,-0.18
2023-01-17T22:30:09.234Z,-0.19
2023-01-17T22:32:58.372Z,-0.19
2023-01-17T22:35:44.108Z,-0.22
2023-01-17T22:38:29.947Z,-0.23
2023-01-17T22:41:19.943Z,-0.24
2023-01-17T22:44:05.545Z,-0.25
2023-01-17T22:46:51.129Z,-0.25
2023-01-17T22:49:36.416Z,-0.26
2023-01-17T22:52:21.795Z,-0.27
2023-01-17T22:55:07.402Z,-0.29
2023-01-17T22:57:53.055Z,-0.31
2023-01-17T23:00:38.322Z,-0.32
2023-01-17T23:03:24.378Z,-0.33
2023-01-17T23:06:13.925Z,-0.33
2023-01-17T23:09:02.643Z,-0.31
2023-01-17T23:11:52.946Z,-0.31
2023-01-17T23:14:57.125Z,-0.30
2023-01-17T23:18:00.831Z,-0.29
2023-01-17T23:20:46.357Z,-0.28
2023-01-17T23:23:32.162Z,-0.28
2023-01-17T23:26:17.806Z,-0.27
2023-01-17T23:29:03.456Z,-0.25
2023-01-17T23:31:48.983Z,-0.24
2023-01-17T23:34:34.421Z,-0.23
2023-01-17T23:37:20.014Z,-0.20
2023-01-17T23:40:06.171Z,-0.19
2023-01-17T23:43:10.128Z,-0.19
2023-01-17T23:45:55.513Z,-0.18
2023-01-17T23:48:40.821Z,-0.19
2023-01-17T23:51:26.047Z,-0.21
2023-01-17T23:54:11.291Z,-0.19
2023-01-17T23:56:56.671Z,-0.19
2023-01-17T23:59:42.071Z,-0.17
